Time;durP1;ratioP1;P1;durP2;ratioP2;P2;SDS_P1;SDS_P2;PMS_P1;PMS_P2;Temp;Humidity;BMP_temperature;BMP_pressure;BME280_temperature;BME280_humidity;BME280_pressure;Samples;Min_cycle;Max_cycle;Signal;HPM_P1;HPM_P2
2023/03/12 00:01:17;;;;;;;;;;;1.20;88.30;;;;;;5091818;28;20007;-74
2023/03/12 00:03:43;;;;;;;;;;;1.20;86.90;;;;;;5090430;28;19947;-75
2023/03/12 00:06:08;;;;;;;;;;;1.20;86.40;;;;;;5090358;28;20430;-76
2023/03/12 00:08:34;;;;;;;;;;;1.20;85.80;;;;;;5090035;28;19911;-75
2023/03/12 00:10:59;;;;;;;;;;;1.30;83.60;;;;;;5090191;28;19923;-75
2023/03/12 00:13:25;;;;;;;;;;;1.30;83.80;;;;;;5091627;28;19905;-75
2023/03/12 00:15:51;;;;;;;;;;;1.40;83.30;;;;;;5091613;28;19969;-76
2023/03/12 00:18:16;;;;;;;;;;;1.40;83.00;;;;;;5090014;28;19926;-75
2023/03/12 00:20:42;;;;;;;;;;;1.30;83.40;;;;;;5090014;28;19908;-76
2023/03/12 00:23:07;;;;;;;;;;;1.40;83.00;;;;;;5089973;28;19904;-75
2023/03/12 00:25:33;;;;;;;;;;;1.30;82.90;;;;;;5091320;28;19912;-75
2023/03/12 00:27:58;;;;;;;;;;;1.30;82.70;;;;;;5091430;28;19950;-75
2023/03/12 00:30:27;;;;;;;;;;;1.40;81.60;;;;;;5108037;28;19919;-75
2023/03/12 00:32:52;;;;;;;;;;;1.40;81.30;;;;;;5111396;28;20348;-75
2023/03/12 00:35:18;;;;;;;;;;;1.40;81.40;;;;;;5111575;28;20395;-76
2023/03/12 00:37:43;;;;;;;;;;;1.40;80.40;;;;;;5111383;28;20403;-75
2023/03/12 00:40:10;;;;;;;;;;;1.40;79.60;;;;;;5092634;28;19911;-75
2023/03/12 00:42:35;;;;;;;;;;;1.50;79.20;;;;;;5111505;28;19903;-75
2023/03/12 00:45:01;;;;;;;;;;;1.50;78.60;;;;;;5092765;28;19908;-75
2023/03/12 00:47:26;;;;;;;;;;;1.50;78.10;;;;;;5111337;28;20459;-75
2023/03/12 00:49:52;;;;;;;;;;;1.60;77.50;;;;;;5092922;28;19914;-75
2023/03/12 00:52:18;;;;;;;;;;;1.50;77.30;;;;;;5093177;28;19916;-75
2023/03/12 00:54:43;;;;;;;;;;;1.50;78.10;;;;;;5092716;28;19954;-76
2023/03/12 00:57:09;;;;;;;;;;;1.50;78.20;;;;;;5110703;28;19953;-75
2023/03/12 00:59:35;;;;;;;;;;;1.50;77.80;;;;;;5110795;28;19914;-76
2023/03/12 01:02:00;;;;;;;;;;;1.50;77.60;;;;;;5111054;28;19971;-75
2023/03/12 01:04:26;;;;;;;;;;;1.70;76.30;;;;;;5110701;28;19907;-75
2023/03/12 01:06:51;;;;;;;;;;;1.60;76.70;;;;;;5110994;28;19908;-75
2023/03/12 01:09:17;;;;;;;;;;;1.60;76.80;;;;;;5111060;28;19931;-75
2023/03/12 01:11:42;;;;;;;;;;;1.60;76.10;;;;;;5110714;28;19962;-75
2023/03/12 01:14:08;;;;;;;;;;;1.60;75.80;;;;;;5092440;28;19915;-74
2023/03/12 01:16:34;;;;;;;;;;;1.60;75.70;;;;;;5092404;28;19942;-75
2023/03/12 01:19:00;;;;;;;;;;;1.60;75.70;;;;;;5110436;28;20107;-75
2023/03/12 01:21:27;;;;;;;;;;;1.60;74.70;;;;;;5092316;28;20507;-75
2023/03/12 01:23:53;;;;;;;;;;;1.50;74.30;;;;;;5110745;28;19908;-75
2023/03/12 01:26:18;;;;;;;;;;;1.60;74.40;;;;;;5110580;28;19948;-76
2023/03/12 01:28:44;;;;;;;;;;;1.60;74.30;;;;;;5110129;28;20315;-74
2023/03/12 01:31:10;;;;;;;;;;;1.50;75.40;;;;;;5091876;28;19912;-73
2023/03/12 01:33:36;;;;;;;;;;;1.30;77.40;;;;;;5091928;28;20437;-75
2023/03/12 01:36:02;;;;;;;;;;;1.20;78.10;;;;;;5110303;28;19941;-76
2023/03/12 01:38:27;;;;;;;;;;;1.20;77.30;;;;;;5092152;28;19956;-75
2023/03/12 01:40:53;;;;;;;;;;;1.10;78.10;;;;;;5110220;28;20398;-76
2023/03/12 01:43:24;;;;;;;;;;;1.00;79.10;;;;;;5091847;28;19903;-75
2023/03/12 01:46:08;;;;;;;;;;;1.00;82.10;;;;;;5110149;28;19908;-74
2023/03/12 01:48:39;;;;;;;;;;;0.90;83.30;;;;;;5109776;28;19908;-74
2023/03/12 01:51:05;;;;;;;;;;;0.80;84.00;;;;;;5091272;28;19919;-75
2023/03/12 01:53:30;;;;;;;;;;;0.70;81.10;;;;;;5091460;28;19907;-75
2023/03/12 01:55:57;;;;;;;;;;;0.70;80.90;;;;;;5091553;28;19907;-75
2023/03/12 01:58:23;;;;;;;;;;;0.70;81.10;;;;;;5109919;28;19903;-75
2023/03/12 02:00:49;;;;;;;;;;;0.80;79.90;;;;;;5109952;28;19904;-75
2023/03/12 02:03:14;;;;;;;;;;;0.80;79.00;;;;;;5109663;28;20284;-75
2023/03/12 02:05:47;;;;;;;;;;;0.90;78.20;;;;;;5109505;28;19904;-76
2023/03/12 02:08:13;;;;;;;;;;;0.90;78.60;;;;;;5091492;28;20006;-76
2023/03/12 02:10:39;;;;;;;;;;;0.80;79.00;;;;;;5109734;28;20048;-75
2023/03/12 02:13:05;;;;;;;;;;;0.90;78.10;;;;;;5109446;28;20858;-75
2023/03/12 02:15:31;;;;;;;;;;;0.90;77.20;;;;;;5091335;28;20485;-75
2023/03/12 02:17:57;;;;;;;;;;;1.00;76.20;;;;;;5109628;28;20585;-75
2023/03/12 02:20:43;;;;;;;;;;;1.00;76.40;;;;;;5109162;28;19911;-76
2023/03/12 02:23:11;;;;;;;;;;;0.90;76.40;;;;;;5067111;28;19908;-76
2023/03/12 02:25:38;;;;;;;;;;;1.00;76.60;;;;;;5090885;28;19908;-75
2023/03/12 02:28:06;;;;;;;;;;;1.10;75.80;;;;;;5109382;28;19914;-74
2023/03/12 02:30:32;;;;;;;;;;;1.10;75.70;;;;;;5108975;28;19915;-76
2023/03/12 02:33:01;;;;;;;;;;;1.20;74.80;;;;;;5109260;28;20006;-75
2023/03/12 02:35:27;;;;;;;;;;;1.20;75.20;;;;;;5090896;28;19914;-75
2023/03/12 02:37:54;;;;;;;;;;;1.20;74.50;;;;;;5109469;28;20116;-76
2023/03/12 02:40:44;;;;;;;;;;;1.30;74.00;;;;;;5109344;28;19944;-75
2023/03/12 02:43:10;;;;;;;;;;;1.30;74.30;;;;;;5109274;28;19903;-75
2023/03/12 02:45:37;;;;;;;;;;;1.20;75.00;;;;;;5090859;28;19915;-75
2023/03/12 02:48:03;;;;;;;;;;;1.20;75.10;;;;;;5091262;28;19904;-76
2023/03/12 02:50:28;;;;;;;;;;;1.20;75.40;;;;;;5091038;28;19918;-75
2023/03/12 02:52:54;;;;;;;;;;;1.30;74.40;;;;;;5090454;28;20295;-75
2023/03/12 02:55:19;;;;;;;;;;;1.50;72.70;;;;;;5090549;28;20341;-75
2023/03/12 02:57:45;;;;;;;;;;;1.40;72.60;;;;;;5091228;28;19908;-75
2023/03/12 03:00:12;;;;;;;;;;;1.50;71.70;;;;;;5108896;28;19998;-74
2023/03/12 03:02:38;;;;;;;;;;;1.60;71.80;;;;;;5091375;28;19908;-75
2023/03/12 03:05:04;;;;;;;;;;;1.60;71.90;;;;;;5113143;28;19938;-75
2023/03/12 03:07:29;;;;;;;;;;;1.60;70.60;;;;;;5113270;28;19907;-75
2023/03/12 03:09:55;;;;;;;;;;;1.60;70.30;;;;;;5094454;28;20412;-74
2023/03/12 03:12:21;;;;;;;;;;;1.60;70.00;;;;;;5113139;28;19919;-75
2023/03/12 03:14:47;;;;;;;;;;;1.80;68.60;;;;;;5113051;28;19914;-75
2023/03/12 03:17:13;;;;;;;;;;;1.80;68.40;;;;;;5112839;28;20037;-75
2023/03/12 03:19:39;;;;;;;;;;;1.90;67.30;;;;;;5113008;28;19908;-76
2023/03/12 03:22:04;;;;;;;;;;;1.80;67.40;;;;;;5112915;28;20364;-75
2023/03/12 03:24:30;;;;;;;;;;;1.80;67.60;;;;;;5094518;28;19977;-75
2023/03/12 03:26:55;;;;;;;;;;;1.80;67.50;;;;;;5094835;28;20415;-75
2023/03/12 03:29:21;;;;;;;;;;;1.80;67.10;;;;;;5112835;28;19912;-74
2023/03/12 03:31:46;;;;;;;;;;;1.90;67.20;;;;;;5112679;28;19915;-75
2023/03/12 03:34:12;;;;;;;;;;;1.80;67.30;;;;;;5112792;28;19904;-75
2023/03/12 03:36:37;;;;;;;;;;;1.70;67.60;;;;;;5112604;28;19911;-75
2023/03/12 03:39:03;;;;;;;;;;;1.70;68.50;;;;;;5112440;28;19907;-77
2023/03/12 03:41:31;;;;;;;;;;;1.60;68.90;;;;;;5094208;28;19914;-76
2023/03/12 03:43:57;;;;;;;;;;;1.60;68.50;;;;;;5112356;28;20442;-75
2023/03/12 03:46:23;;;;;;;;;;;1.60;69.00;;;;;;5094182;28;19907;-75
2023/03/12 03:48:49;;;;;;;;;;;1.50;69.30;;;;;;5094083;28;19904;-75
2023/03/12 03:51:15;;;;;;;;;;;1.40;69.30;;;;;;5112240;28;19916;-75
2023/03/12 03:53:41;;;;;;;;;;;1.40;69.30;;;;;;5093982;28;19908;-75
2023/03/12 03:56:08;;;;;;;;;;;1.30;69.60;;;;;;5094393;28;19915;-75
2023/03/12 03:58:34;;;;;;;;;;;1.30;70.50;;;;;;5112038;28;19907;-75
2023/03/12 04:00:59;;;;;;;;;;;1.20;72.00;;;;;;5093630;28;19919;-76
2023/03/12 04:03:25;;;;;;;;;;;1.20;73.70;;;;;;5094183;28;19904;-75
2023/03/12 04:05:55;;;;;;;;;;;1.10;75.40;;;;;;5093674;28;19930;-75
2023/03/12 04:08:20;;;;;;;;;;;1.00;76.40;;;;;;5112037;28;19915;-74
2023/03/12 04:10:46;;;;;;;;;;;0.90;77.60;;;;;;5112137;28;19916;-76
2023/03/12 04:13:11;;;;;;;;;;;0.80;78.40;;;;;;5112141;28;19914;-74
2023/03/12 04:15:37;;;;;;;;;;;0.80;79.20;;;;;;5111222;28;19907;-77
2023/03/12 04:18:03;;;;;;;;;;;0.70;80.30;;;;;;5093905;28;20450;-74
2023/03/12 04:20:28;;;;;;;;;;;0.70;80.80;;;;;;5093229;28;19907;-74
2023/03/12 04:22:54;;;;;;;;;;;0.70;77.60;;;;;;5111375;28;19907;-74
2023/03/12 04:25:20;;;;;;;;;;;0.90;75.20;;;;;;5111591;28;19907;-76
2023/03/12 04:27:45;;;;;;;;;;;0.90;76.70;;;;;;5111723;28;19915;-76
2023/03/12 04:30:11;;;;;;;;;;;0.90;77.10;;;;;;5111481;28;20002;-75
2023/03/12 04:32:36;;;;;;;;;;;0.90;79.20;;;;;;5111590;28;20418;-75
2023/03/12 04:35:02;;;;;;;;;;;1.00;79.80;;;;;;5111195;28;19907;-75
2023/03/12 04:37:30;;;;;;;;;;;1.00;79.80;;;;;;5111541;28;19904;-76
2023/03/12 04:39:56;;;;;;;;;;;1.00;80.10;;;;;;5111274;28;19923;-75
2023/03/12 04:42:21;;;;;;;;;;;1.00;80.60;;;;;;5111511;28;19907;-75
2023/03/12 04:44:49;;;;;;;;;;;1.00;80.50;;;;;;5093026;28;20335;-75
2023/03/12 04:47:14;;;;;;;;;;;1.00;80.80;;;;;;5111206;28;19951;-76
2023/03/12 04:49:40;;;;;;;;;;;1.00;80.00;;;;;;5111077;28;19939;-76
2023/03/12 04:52:05;;;;;;;;;;;0.90;79.70;;;;;;5111216;28;20387;-75
2023/03/12 04:54:32;;;;;;;;;;;0.90;79.20;;;;;;5110714;28;19965;-75
2023/03/12 04:56:57;;;;;;;;;;;0.90;78.10;;;;;;5111043;28;19907;-76
2023/03/12 04:59:23;;;;;;;;;;;0.80;78.20;;;;;;5093132;28;20432;-75
2023/03/12 05:01:48;;;;;;;;;;;0.80;79.20;;;;;;5092709;28;20400;-75
2023/03/12 05:04:14;;;;;;;;;;;0.70;79.50;;;;;;5110950;28;19907;-75
2023/03/12 05:06:39;;;;;;;;;;;0.70;80.20;;;;;;5092759;28;20421;-76
2023/03/12 05:09:05;;;;;;;;;;;0.70;81.10;;;;;;5092947;28;20326;-75
2023/03/12 05:11:30;;;;;;;;;;;0.70;82.60;;;;;;5092584;28;20450;-75
2023/03/12 05:13:56;;;;;;;;;;;0.70;81.80;;;;;;5110944;28;20515;-76
2023/03/12 05:16:22;;;;;;;;;;;0.70;82.10;;;;;;5110767;28;20267;-75
2023/03/12 05:18:47;;;;;;;;;;;0.80;82.70;;;;;;5092314;28;19911;-75
2023/03/12 05:21:14;;;;;;;;;;;0.80;81.50;;;;;;5110597;28;19990;-75
2023/03/12 05:23:41;;;;;;;;;;;0.90;82.10;;;;;;5110286;28;19907;-76
2023/03/12 05:26:15;;;;;;;;;;;0.90;83.50;;;;;;5110700;28;20359;-75
2023/03/12 05:28:40;;;;;;;;;;;1.00;84.10;;;;;;5091946;28;20368;-75
2023/03/12 05:31:08;;;;;;;;;;;1.00;85.00;;;;;;5091748;28;19931;-74
2023/03/12 05:33:33;;;;;;;;;;;1.00;85.90;;;;;;5110311;28;19960;-75
2023/03/12 05:35:59;;;;;;;;;;;1.00;85.40;;;;;;5091986;28;20319;-75
2023/03/12 05:38:24;;;;;;;;;;;1.10;87.40;;;;;;5091881;28;19907;-74
2023/03/12 05:40:52;;;;;;;;;;;1.20;84.10;;;;;;5110262;28;19903;-76
2023/03/12 05:43:17;;;;;;;;;;;1.30;83.20;;;;;;5091809;28;19907;-75
2023/03/12 05:45:43;;;;;;;;;;;1.30;82.90;;;;;;5110250;28;19965;-74
2023/03/12 05:48:08;;;;;;;;;;;1.30;84.00;;;;;;5109953;28;19914;-75
2023/03/12 05:50:34;;;;;;;;;;;1.40;84.60;;;;;;5109633;28;19972;-74
2023/03/12 05:52:59;;;;;;;;;;;1.50;84.60;;;;;;5109501;28;20433;-74
2023/03/12 05:55:25;;;;;;;;;;;1.50;84.50;;;;;;5091933;28;19957;-75
2023/03/12 05:57:51;;;;;;;;;;;1.60;83.30;;;;;;5110731;28;19908;-73
2023/03/12 06:00:16;;;;;;;;;;;1.70;84.20;;;;;;5109951;28;19908;-72
2023/03/12 06:02:42;;;;;;;;;;;1.80;82.10;;;;;;5109769;28;20292;-74
2023/03/12 06:05:08;;;;;;;;;;;1.90;81.80;;;;;;5090943;28;20723;-72
2023/03/12 06:07:34;;;;;;;;;;;2.00;82.50;;;;;;5091339;28;20307;-72
2023/03/12 06:09:59;;;;;;;;;;;2.30;83.40;;;;;;5091226;28;19907;-71
2023/03/12 06:12:25;;;;;;;;;;;2.50;83.80;;;;;;5109639;28;19916;-73
2023/03/12 06:14:50;;;;;;;;;;;2.70;83.10;;;;;;5109435;28;19930;-74
2023/03/12 06:17:16;;;;;;;;;;;2.70;82.80;;;;;;5109400;28;20305;-73
2023/03/12 06:19:42;;;;;;;;;;;2.70;80.30;;;;;;5091219;28;20291;-73
2023/03/12 06:22:08;;;;;;;;;;;2.70;81.40;;;;;;5109447;28;20042;-73
2023/03/12 06:24:33;;;;;;;;;;;2.70;84.30;;;;;;5109474;28;20006;-72
2023/03/12 06:26:59;;;;;;;;;;;2.70;85.70;;;;;;5109102;28;19908;-72
2023/03/12 06:29:24;;;;;;;;;;;2.90;86.20;;;;;;5090996;28;19988;-73
2023/03/12 06:31:51;;;;;;;;;;;3.30;83.20;;;;;;5091319;28;20273;-73
2023/03/12 06:34:16;;;;;;;;;;;3.80;80.40;;;;;;5109266;28;19910;-75
2023/03/12 06:36:42;;;;;;;;;;;4.50;78.50;;;;;;5090913;28;19908;-74
2023/03/12 06:39:08;;;;;;;;;;;5.20;74.60;;;;;;5108582;28;19908;-73
2023/03/12 06:41:34;;;;;;;;;;;5.80;69.20;;;;;;5109238;28;20004;-73
2023/03/12 06:44:02;;;;;;;;;;;6.30;64.80;;;;;;5090706;28;20501;-73
2023/03/12 06:46:28;;;;;;;;;;;6.90;64.30;;;;;;5090920;28;19907;-73
2023/03/12 06:48:53;;;;;;;;;;;7.50;62.20;;;;;;5090916;28;19912;-73
2023/03/12 06:51:19;;;;;;;;;;;8.00;60.70;;;;;;5109065;28;20336;-72
2023/03/12 06:53:45;;;;;;;;;;;8.40;57.10;;;;;;5108809;28;19908;-74
2023/03/12 06:56:11;;;;;;;;;;;9.00;55.70;;;;;;5090798;28;20394;-73
2023/03/12 06:58:36;;;;;;;;;;;9.20;54.40;;;;;;5109030;28;19923;-73
2023/03/12 07:01:02;;;;;;;;;;;9.60;52.00;;;;;;5109095;28;19984;-72
2023/03/12 07:03:28;;;;;;;;;;;9.60;50.90;;;;;;5091133;28;19907;-73
2023/03/12 07:05:54;;;;;;;;;;;9.60;51.00;;;;;;5109208;28;20355;-73
2023/03/12 07:08:21;;;;;;;;;;;9.90;51.20;;;;;;5090798;28;19903;-73
2023/03/12 07:10:47;;;;;;;;;;;10.80;48.30;;;;;;5108994;28;19968;-74
2023/03/12 07:13:13;;;;;;;;;;;11.10;46.90;;;;;;5090354;28;19908;-74
2023/03/12 07:15:39;;;;;;;;;;;11.70;45.30;;;;;;5109177;28;19919;-74
2023/03/12 07:18:09;;;;;;;;;;;11.70;44.10;;;;;;5109311;28;19937;-74
2023/03/12 07:20:36;;;;;;;;;;;11.60;44.00;;;;;;5109093;28;20006;-73
2023/03/12 07:23:02;;;;;;;;;;;11.60;44.40;;;;;;5090563;28;20301;-73
2023/03/12 07:25:28;;;;;;;;;;;11.80;43.40;;;;;;5108830;28;19912;-74
2023/03/12 07:27:53;;;;;;;;;;;11.80;43.60;;;;;;5090263;28;20574;-74
2023/03/12 07:30:19;;;;;;;;;;;12.40;43.70;;;;;;5108684;28;19919;-73
2023/03/12 07:32:44;;;;;;;;;;;13.20;42.50;;;;;;5090727;28;19910;-73
2023/03/12 07:35:10;;;;;;;;;;;13.70;41.70;;;;;;5108532;28;19915;-73
2023/03/12 07:37:35;;;;;;;;;;;14.10;40.60;;;;;;5089663;28;20199;-74
2023/03/12 07:40:04;;;;;;;;;;;14.20;38.90;;;;;;5108878;28;19961;-74
2023/03/12 07:42:29;;;;;;;;;;;14.20;39.30;;;;;;5108418;28;19904;-74
2023/03/12 07:44:55;;;;;;;;;;;14.40;39.90;;;;;;5089775;28;19934;-73
2023/03/12 07:47:20;;;;;;;;;;;14.50;38.30;;;;;;5090844;28;19904;-74
2023/03/12 07:49:46;;;;;;;;;;;14.20;39.60;;;;;;5109388;28;19912;-72
2023/03/12 07:52:12;;;;;;;;;;;14.40;40.80;;;;;;5112582;28;19919;-77
2023/03/12 07:54:37;;;;;;;;;;;14.70;39.20;;;;;;5112127;28;19908;-73
2023/03/12 07:57:03;;;;;;;;;;;14.60;40.10;;;;;;5094183;28;19914;-74
2023/03/12 07:59:29;;;;;;;;;;;14.40;40.20;;;;;;5111975;28;19907;-73
2023/03/12 08:01:54;;;;;;;;;;;14.20;40.20;;;;;;5112200;28;20014;-74
2023/03/12 08:04:20;;;;;;;;;;;13.50;40.90;;;;;;5112382;28;19907;-73
2023/03/12 08:06:45;;;;;;;;;;;13.20;42.20;;;;;;5111847;28;20389;-73
2023/03/12 08:09:11;;;;;;;;;;;13.40;41.40;;;;;;5093728;28;19908;-74
2023/03/12 08:11:36;;;;;;;;;;;13.50;42.20;;;;;;5111205;28;20030;-74
2023/03/12 08:14:05;;;;;;;;;;;13.70;41.60;;;;;;5093462;28;19907;-74
2023/03/12 08:16:31;;;;;;;;;;;14.20;40.90;;;;;;5093644;28;19907;-74
2023/03/12 08:18:56;;;;;;;;;;;14.50;40.70;;;;;;5093018;28;19930;-75
2023/03/12 08:21:22;;;;;;;;;;;14.80;39.20;;;;;;5093512;28;19912;-74
2023/03/12 08:23:48;;;;;;;;;;;14.90;39.20;;;;;;5111903;28;19951;-74
2023/03/12 08:26:13;;;;;;;;;;;14.80;38.70;;;;;;5093272;28;20558;-74
2023/03/12 08:28:39;;;;;;;;;;;14.90;39.20;;;;;;5093571;28;19976;-74
2023/03/12 08:31:04;;;;;;;;;;;14.80;39.30;;;;;;5093171;28;20052;-74
2023/03/12 08:33:30;;;;;;;;;;;15.00;39.60;;;;;;5093281;28;20362;-74
2023/03/12 08:35:56;;;;;;;;;;;15.40;39.30;;;;;;5111598;28;19908;-74
2023/03/12 08:38:21;;;;;;;;;;;15.50;39.10;;;;;;5111504;28;19911;-74
2023/03/12 08:40:53;;;;;;;;;;;15.70;37.90;;;;;;5093003;28;20550;-74
2023/03/12 08:43:18;;;;;;;;;;;15.90;39.30;;;;;;5092731;28;20291;-74
2023/03/12 08:45:44;;;;;;;;;;;16.10;38.10;;;;;;5111351;28;19937;-73
2023/03/12 08:48:09;;;;;;;;;;;15.80;36.30;;;;;;5111293;28;19919;-75
2023/03/12 08:50:35;;;;;;;;;;;15.00;37.90;;;;;;5110910;28;19937;-74
2023/03/12 08:53:01;;;;;;;;;;;15.00;38.70;;;;;;5093110;28;20415;-74
2023/03/12 08:55:27;;;;;;;;;;;15.20;38.80;;;;;;5111411;28;19935;-75
2023/03/12 08:57:53;;;;;;;;;;;15.50;38.40;;;;;;5110910;28;19953;-75
2023/03/12 09:00:18;;;;;;;;;;;15.60;38.50;;;;;;5110636;28;19907;-75
2023/03/12 09:02:44;;;;;;;;;;;15.80;37.50;;;;;;5111331;28;20383;-74
2023/03/12 09:05:10;;;;;;;;;;;16.00;37.10;;;;;;5110881;28;19916;-76
2023/03/12 09:07:36;;;;;;;;;;;16.30;37.30;;;;;;5092890;28;19908;-75
2023/03/12 09:10:01;;;;;;;;;;;16.50;35.30;;;;;;5092503;28;19963;-75
2023/03/12 09:12:27;;;;;;;;;;;16.70;35.30;;;;;;5111059;28;20280;-75
2023/03/12 09:14:53;;;;;;;;;;;16.80;34.50;;;;;;5092142;28;19948;-75
2023/03/12 09:17:18;;;;;;;;;;;16.80;35.10;;;;;;5110301;28;19907;-75
2023/03/12 09:19:44;;;;;;;;;;;16.90;34.40;;;;;;5110773;28;19974;-76
2023/03/12 09:22:09;;;;;;;;;;;16.80;34.70;;;;;;5092507;28;20474;-75
2023/03/12 09:24:35;;;;;;;;;;;16.80;34.90;;;;;;5111125;28;19907;-75
2023/03/12 09:27:03;;;;;;;;;;;17.10;34.60;;;;;;5092299;28;19952;-74
2023/03/12 09:29:28;;;;;;;;;;;17.00;34.00;;;;;;5092047;28;20302;-75
2023/03/12 09:31:54;;;;;;;;;;;17.20;34.40;;;;;;5091995;28;19919;-74
2023/03/12 09:34:20;;;;;;;;;;;17.00;33.50;;;;;;5110431;28;20007;-74
2023/03/12 09:36:45;;;;;;;;;;;16.80;34.10;;;;;;5110635;28;20517;-75
2023/03/12 09:39:11;;;;;;;;;;;16.90;34.20;;;;;;5110325;28;20322;-75
2023/03/12 09:41:38;;;;;;;;;;;16.90;33.60;;;;;;5110268;28;19998;-75
2023/03/12 09:44:27;;;;;;;;;;;16.90;33.90;;;;;;5091789;28;19916;-74
2023/03/12 09:46:54;;;;;;;;;;;16.80;34.60;;;;;;5091951;28;19908;-76
2023/03/12 09:49:41;;;;;;;;;;;17.00;34.50;;;;;;5110060;28;19907;-74
2023/03/12 09:52:17;;;;;;;;;;;17.10;34.30;;;;;;5110324;28;20450;-74
2023/03/12 09:54:51;;;;;;;;;;;17.30;33.60;;;;;;5092235;28;20398;-75
2023/03/12 09:57:20;;;;;;;;;;;17.50;33.20;;;;;;5109263;28;19908;-75
2023/03/12 09:59:46;;;;;;;;;;;17.90;32.20;;;;;;5109801;28;20669;-75
2023/03/12 10:02:31;;;;;;;;;;;17.70;31.70;;;;;;5091605;28;19910;-75
2023/03/12 10:05:00;;;;;;;;;;;17.50;32.20;;;;;;5108896;28;19914;-75
2023/03/12 10:07:31;;;;;;;;;;;17.20;31.80;;;;;;5109730;28;19915;-76
2023/03/12 10:09:56;;;;;;;;;;;17.30;32.90;;;;;;5109615;28;19903;-75
2023/03/12 10:12:25;;;;;;;;;;;17.40;32.50;;;;;;5090616;28;19922;-73
2023/03/12 10:14:56;;;;;;;;;;;17.00;32.60;;;;;;5109377;28;20383;-73
2023/03/12 10:17:25;;;;;;;;;;;17.20;32.60;;;;;;5091106;28;19904;-73
2023/03/12 10:19:54;;;;;;;;;;;17.40;31.50;;;;;;5109272;28;19908;-74
2023/03/12 10:22:36;;;;;;;;;;;17.30;32.20;;;;;;5090734;28;20030;-73
2023/03/12 10:25:16;;;;;;;;;;;17.40;32.10;;;;;;5090707;28;19907;-73
2023/03/12 10:27:41;;;;;;;;;;;17.20;31.60;;;;;;5091187;28;19908;-74
2023/03/12 10:30:35;;;;;;;;;;;17.10;32.30;;;;;;5085182;28;20388;-74
2023/03/12 10:33:03;;;;;;;;;;;17.80;31.90;;;;;;5098225;28;20376;-74
2023/03/12 10:35:30;;;;;;;;;;;17.70;31.80;;;;;;5108146;28;19943;-74
2023/03/12 10:37:57;;;;;;;;;;;17.50;32.00;;;;;;5106025;28;19966;-74
2023/03/12 10:40:25;;;;;;;;;;;17.50;32.00;;;;;;5106701;28;20257;-73
2023/03/12 10:42:50;;;;;;;;;;;16.70;32.60;;;;;;5102392;28;19915;-73
2023/03/12 10:45:19;;;;;;;;;;;15.90;33.10;;;;;;5080949;28;19912;-73
2023/03/12 10:47:49;;;;;;;;;;;15.30;34.50;;;;;;5069048;28;19995;-73
2023/03/12 10:50:29;;;;;;;;;;;14.50;35.20;;;;;;5087607;28;19954;-74
2023/03/12 10:53:14;;;;;;;;;;;13.60;35.80;;;;;;5068838;28;20011;-72
2023/03/12 10:55:40;;;;;;;;;;;12.80;36.50;;;;;;5072613;28;19910;-73
2023/03/12 10:58:06;;;;;;;;;;;12.00;37.40;;;;;;5068942;28;19904;-72
2023/03/12 11:00:31;;;;;;;;;;;11.60;38.80;;;;;;5086860;28;19912;-72
2023/03/12 11:03:17;;;;;;;;;;;11.20;39.80;;;;;;5087095;28;19904;-72
2023/03/12 11:05:51;;;;;;;;;;;10.90;40.60;;;;;;5068848;28;19904;-72
2023/03/12 11:08:28;;;;;;;;;;;10.70;41.60;;;;;;5068292;28;19911;-71
2023/03/12 11:10:56;;;;;;;;;;;10.60;41.70;;;;;;5069796;28;20425;-71
2023/03/12 11:13:32;;;;;;;;;;;10.30;42.20;;;;;;5086714;28;19958;-73
2023/03/12 11:15:59;;;;;;;;;;;10.10;42.10;;;;;;5077315;28;20380;-73
2023/03/12 11:18:28;;;;;;;;;;;9.80;42.90;;;;;;5089581;28;19903;-73
2023/03/12 11:20:55;;;;;;;;;;;9.70;43.20;;;;;;5088283;28;19907;-74
2023/03/12 11:23:26;;;;;;;;;;;9.70;44.00;;;;;;5089178;28;19914;-73
2023/03/12 11:25:53;;;;;;;;;;;9.70;44.00;;;;;;5093921;28;19904;-74
2023/03/12 11:28:24;;;;;;;;;;;9.60;44.20;;;;;;5094289;28;19965;-74
2023/03/12 11:30:52;;;;;;;;;;;9.60;44.20;;;;;;5091007;28;19916;-74
2023/03/12 11:33:17;;;;;;;;;;;9.60;44.40;;;;;;5090995;28;19912;-74
2023/03/12 11:35:55;;;;;;;;;;;9.70;44.30;;;;;;5091967;28;19911;-72
2023/03/12 11:38:28;;;;;;;;;;;9.70;43.60;;;;;;5090967;28;19908;-76
2023/03/12 11:41:12;;;;;;;;;;;9.60;43.50;;;;;;5092209;28;19923;-75
2023/03/12 11:43:38;;;;;;;;;;;9.70;42.70;;;;;;5090844;28;20018;-74
2023/03/12 11:46:07;;;;;;;;;;;9.70;43.50;;;;;;5092081;28;20427;-74
2023/03/12 11:48:37;;;;;;;;;;;9.60;42.50;;;;;;5090621;28;19911;-75
2023/03/12 11:51:06;;;;;;;;;;;9.60;42.30;;;;;;5091807;28;19982;-75
2023/03/12 11:53:35;;;;;;;;;;;9.60;43.30;;;;;;5092088;28;19912;-75
2023/03/12 11:56:00;;;;;;;;;;;9.60;43.00;;;;;;5090749;28;20382;-74
2023/03/12 11:58:29;;;;;;;;;;;9.50;43.70;;;;;;5092021;28;19912;-75
2023/03/12 12:01:09;;;;;;;;;;;9.40;43.90;;;;;;5090399;28;20350;-73
2023/03/12 12:03:38;;;;;;;;;;;9.50;45.00;;;;;;5091825;28;19911;-74
2023/03/12 12:06:07;;;;;;;;;;;9.50;43.60;;;;;;5090592;28;19954;-74
2023/03/12 12:08:55;;;;;;;;;;;9.60;42.50;;;;;;5091791;28;19954;-74
2023/03/12 12:11:30;;;;;;;;;;;9.50;42.70;;;;;;5090251;28;20296;-74
2023/03/12 12:14:14;;;;;;;;;;;9.50;43.60;;;;;;5090228;28;19944;-74
2023/03/12 12:16:39;;;;;;;;;;;9.50;42.80;;;;;;5090493;28;19945;-74
2023/03/12 12:19:17;;;;;;;;;;;9.50;42.80;;;;;;5091571;28;19962;-73
2023/03/12 12:21:46;;;;;;;;;;;9.50;42.30;;;;;;5090413;28;19908;-73
2023/03/12 12:24:17;;;;;;;;;;;9.50;41.80;;;;;;5090045;28;19908;-74
2023/03/12 12:26:43;;;;;;;;;;;9.50;41.70;;;;;;5091508;28;19934;-75
2023/03/12 12:29:24;;;;;;;;;;;9.50;41.60;;;;;;5089785;28;20018;-74
2023/03/12 12:31:53;;;;;;;;;;;9.70;42.30;;;;;;5090066;28;19926;-73
2023/03/12 12:34:31;;;;;;;;;;;9.70;41.80;;;;;;5089749;28;20660;-73
2023/03/12 12:37:03;;;;;;;;;;;9.70;41.90;;;;;;5089230;28;19904;-73
2023/03/12 12:39:34;;;;;;;;;;;9.80;41.40;;;;;;5089820;28;19926;-73
2023/03/12 12:42:03;;;;;;;;;;;9.80;40.20;;;;;;5091307;28;20405;-73
2023/03/12 12:44:34;;;;;;;;;;;9.90;40.10;;;;;;5091087;28;20010;-74
2023/03/12 12:47:04;;;;;;;;;;;10.00;39.70;;;;;;5090871;28;19977;-73
2023/03/12 12:49:42;;;;;;;;;;;10.00;38.60;;;;;;5090887;28;19954;-73
2023/03/12 12:52:10;;;;;;;;;;;10.10;39.60;;;;;;5089545;28;19926;-73
2023/03/12 12:54:54;;;;;;;;;;;10.10;39.80;;;;;;5090727;28;19968;-73
2023/03/12 12:57:22;;;;;;;;;;;10.20;38.60;;;;;;5089692;28;19908;-73
2023/03/12 12:59:57;;;;;;;;;;;10.20;37.80;;;;;;5089388;28;19904;-73
2023/03/12 13:02:25;;;;;;;;;;;10.20;38.10;;;;;;5089260;28;19915;-73
2023/03/12 13:04:54;;;;;;;;;;;10.20;38.40;;;;;;5089168;28;19915;-74
2023/03/12 13:07:20;;;;;;;;;;;10.20;37.00;;;;;;5090361;28;19908;-73
2023/03/12 13:09:49;;;;;;;;;;;10.20;36.50;;;;;;5090650;28;19915;-73
2023/03/12 13:12:17;;;;;;;;;;;10.20;36.70;;;;;;5090484;28;20284;-73
2023/03/12 13:14:43;;;;;;;;;;;10.10;35.70;;;;;;5088978;28;19908;-72
2023/03/12 13:17:21;;;;;;;;;;;10.10;35.80;;;;;;5088373;28;20006;-73
2023/03/12 13:19:49;;;;;;;;;;;10.20;36.00;;;;;;5090229;28;19908;-72
2023/03/12 13:22:17;;;;;;;;;;;10.20;36.20;;;;;;5090215;28;19907;-75
2023/03/12 13:24:52;;;;;;;;;;;10.10;37.30;;;;;;5090191;28;19904;-73
2023/03/12 13:27:38;;;;;;;;;;;10.20;36.30;;;;;;5090040;28;19908;-74
2023/03/12 13:30:22;;;;;;;;;;;10.20;34.40;;;;;;5088546;28;19998;-74
2023/03/12 13:32:48;;;;;;;;;;;10.20;34.40;;;;;;5088755;28;20014;-73
2023/03/12 13:35:17;;;;;;;;;;;10.20;35.10;;;;;;5088624;28;19995;-74
2023/03/12 13:37:45;;;;;;;;;;;10.20;35.70;;;;;;5089547;28;19908;-74
2023/03/12 13:40:26;;;;;;;;;;;10.20;35.90;;;;;;5087813;28;19943;-74
2023/03/12 13:43:05;;;;;;;;;;;10.20;35.30;;;;;;5088898;28;20343;-73
2023/03/12 13:45:30;;;;;;;;;;;10.20;34.00;;;;;;5087549;28;19908;-75
2023/03/12 13:48:00;;;;;;;;;;;10.20;33.40;;;;;;5088156;28;20300;-74
2023/03/12 13:50:29;;;;;;;;;;;10.20;33.70;;;;;;5087496;28;19908;-74
2023/03/12 13:53:05;;;;;;;;;;;10.20;34.00;;;;;;5088752;28;19969;-75
2023/03/12 13:55:35;;;;;;;;;;;10.20;33.90;;;;;;5088890;28;19907;-76
2023/03/12 13:58:20;;;;;;;;;;;10.20;32.80;;;;;;5088964;28;20338;-74
2023/03/12 14:01:06;;;;;;;;;;;10.10;33.50;;;;;;5088701;28;20049;-73
2023/03/12 14:03:39;;;;;;;;;;;10.10;33.10;;;;;;5087126;28;19926;-74
2023/03/12 14:06:09;;;;;;;;;;;10.00;33.70;;;;;;5087251;28;19908;-73
2023/03/12 14:08:51;;;;;;;;;;;10.00;34.50;;;;;;5087072;28;19908;-75
2023/03/12 14:11:34;;;;;;;;;;;9.90;34.70;;;;;;5088235;28;19934;-73
2023/03/12 14:14:14;;;;;;;;;;;10.00;33.80;;;;;;5088328;28;19935;-74
2023/03/12 14:16:42;;;;;;;;;;;9.90;32.50;;;;;;5087513;28;19918;-74
2023/03/12 14:19:16;;;;;;;;;;;9.90;33.00;;;;;;5087511;28;19904;-73
2023/03/12 14:21:46;;;;;;;;;;;9.80;33.20;;;;;;5089168;28;20249;-74
2023/03/12 14:24:23;;;;;;;;;;;9.70;33.20;;;;;;5089171;28;20438;-73
2023/03/12 14:26:49;;;;;;;;;;;9.60;32.40;;;;;;5087792;28;19907;-74
2023/03/12 14:29:19;;;;;;;;;;;9.40;32.00;;;;;;5095937;28;19920;-73
2023/03/12 14:31:46;;;;;;;;;;;9.30;33.00;;;;;;5091250;28;20715;-73